createdAt,value
2018-08-13T00:00:43.506Z,2.20
2018-08-13T00:03:14.394Z,1.97
2018-08-13T00:05:45.143Z,2.57
2018-08-13T00:08:16.683Z,1.83
2018-08-13T00:10:47.668Z,1.43
2018-08-13T00:13:18.424Z,2.03
2018-08-13T00:15:49.168Z,1.57
2018-08-13T00:18:19.885Z,3.13
2018-08-13T00:20:50.540Z,2.20
2018-08-13T00:23:21.218Z,1.33
2018-08-13T00:25:52.003Z,1.67
2018-08-13T00:28:22.657Z,1.77
2018-08-13T00:30:53.396Z,2.23
2018-08-13T00:33:24.118Z,1.63
2018-08-13T00:35:54.972Z,2.43
2018-08-13T00:38:25.695Z,2.37
2018-08-13T00:40:56.442Z,2.63
2018-08-13T00:43:27.076Z,5.07
2018-08-13T00:45:57.810Z,1.63
2018-08-13T00:48:28.538Z,2.90
2018-08-13T00:50:59.300Z,1.70
2018-08-13T00:53:29.989Z,2.20
2018-08-13T00:56:00.659Z,2.37
2018-08-13T00:58:31.374Z,2.57
2018-08-13T01:01:02.049Z,2.83
2018-08-13T01:03:32.905Z,2.50
2018-08-13T01:06:03.584Z,3.80
2018-08-13T01:08:34.227Z,2.77
2018-08-13T01:11:04.964Z,1.93
2018-08-13T01:13:35.627Z,2.53
2018-08-13T01:16:06.412Z,2.47
2018-08-13T01:18:37.142Z,1.73
2018-08-13T01:21:08.120Z,2.70
2018-08-13T01:23:38.850Z,2.07
2018-08-13T01:26:09.517Z,3.20
2018-08-13T01:28:40.284Z,1.57
2018-08-13T01:31:11.014Z,1.70
2018-08-13T01:33:41.657Z,2.20
2018-08-13T01:36:12.414Z,2.30
2018-08-13T01:38:43.184Z,1.60
2018-08-13T01:41:13.908Z,2.30
2018-08-13T01:43:44.583Z,1.40
2018-08-13T01:46:15.318Z,2.07
2018-08-13T01:48:46.008Z,1.60
2018-08-13T01:51:16.685Z,1.70
2018-08-13T01:54:50.580Z,3.13
2018-08-13T01:57:21.327Z,1.90
2018-08-13T01:59:52.072Z,1.77
2018-08-13T02:02:22.844Z,1.43
2018-08-13T02:04:53.514Z,3.37
2018-08-13T02:07:24.246Z,2.50
2018-08-13T02:09:54.904Z,2.63
2018-08-13T02:12:25.622Z,3.03
2018-08-13T02:14:56.339Z,3.47
2018-08-13T02:17:27.046Z,1.90
2018-08-13T02:20:06.456Z,2.23
2018-08-13T02:22:37.559Z,3.53
2018-08-13T02:25:08.967Z,1.83
2018-08-13T02:27:39.690Z,2.13
2018-08-13T02:30:12.135Z,1.70
2018-08-13T02:32:42.856Z,1.87
2018-08-13T02:35:13.872Z,2.10
2018-08-13T02:37:44.587Z,2.83
2018-08-13T02:40:15.321Z,1.90
2018-08-13T02:42:46.029Z,2.07
2018-08-13T02:45:16.727Z,2.43
2018-08-13T02:47:47.393Z,2.20
2018-08-13T02:50:18.178Z,2.43
2018-08-13T02:52:48.936Z,3.03
2018-08-13T02:55:19.620Z,2.87
2018-08-13T02:57:50.315Z,2.43
2018-08-13T03:00:21.084Z,1.77
2018-08-13T03:02:51.758Z,4.63
2018-08-13T03:05:22.451Z,4.10
2018-08-13T03:07:53.106Z,1.90
2018-08-13T03:10:23.772Z,2.27
2018-08-13T03:12:54.487Z,3.97
2018-08-13T03:15:25.214Z,3.00
2018-08-13T03:17:56.045Z,3.63
2018-08-13T03:20:26.748Z,3.80
2018-08-13T03:22:57.423Z,3.57
2018-08-13T03:25:28.154Z,2.57
2018-08-13T03:27:58.888Z,2.83
2018-08-13T03:30:29.544Z,2.20
2018-08-13T03:33:00.258Z,2.27
2018-08-13T03:35:31.024Z,2.63
2018-08-13T03:38:01.711Z,1.83
2018-08-13T03:40:32.483Z,2.17
2018-08-13T03:43:03.144Z,1.90
2018-08-13T03:45:33.910Z,2.80
2018-08-13T03:48:04.700Z,3.03
2018-08-13T03:50:35.462Z,2.33
2018-08-13T03:53:06.827Z,3.43
2018-08-13T03:55:37.617Z,4.20
2018-08-13T03:58:08.372Z,2.50
2018-08-13T04:00:39.071Z,2.37
2018-08-13T04:03:09.859Z,3.93
2018-08-13T04:05:40.560Z,3.13
2018-08-13T04:08:11.268Z,3.43
2018-08-13T04:10:41.976Z,3.97
2018-08-13T04:13:12.591Z,2.57
2018-08-13T04:15:43.363Z,2.17
2018-08-13T04:18:14.057Z,1.73
2018-08-13T04:20:44.932Z,1.90
2018-08-13T04:23:15.688Z,2.10
2018-08-13T04:25:46.337Z,2.73
2018-08-13T04:28:17.046Z,1.70
2018-08-13T04:30:47.708Z,2.63
2018-08-13T04:33:18.358Z,1.80
2018-08-13T04:35:49.009Z,1.40
2018-08-13T04:38:19.676Z,1.67
2018-08-13T04:40:50.406Z,1.20
2018-08-13T04:43:21.067Z,2.23
2018-08-13T04:45:51.781Z,2.93
2018-08-13T04:48:22.445Z,1.20
2018-08-13T04:50:53.128Z,1.50
2018-08-13T04:53:23.820Z,1.20
2018-08-13T04:55:54.611Z,3.17
2018-08-13T04:58:26.180Z,2.37
2018-08-13T05:00:56.939Z,2.00
2018-08-13T05:03:27.716Z,2.83
2018-08-13T05:05:58.508Z,2.73
2018-08-13T05:08:29.226Z,5.77
2018-08-13T05:10:59.965Z,1.50
2018-08-13T05:13:30.722Z,3.37
2018-08-13T05:16:01.574Z,4.13
2018-08-13T05:18:32.598Z,3.00
2018-08-13T05:21:03.337Z,3.20
2018-08-13T05:23:33.950Z,5.70
2018-08-13T05:26:04.819Z,2.03
2018-08-13T05:28:35.580Z,5.57
2018-08-13T05:31:06.402Z,1.60
2018-08-13T05:33:37.108Z,3.13
2018-08-13T05:36:08.175Z,2.43
2018-08-13T05:38:38.877Z,2.60
2018-08-13T05:41:09.635Z,2.77
2018-08-13T05:43:40.335Z,3.27
2018-08-13T05:46:11.026Z,2.43
2018-08-13T05:48:41.639Z,3.17
2018-08-13T05:51:12.352Z,5.23
2018-08-13T05:53:42.985Z,5.77
2018-08-13T05:56:13.679Z,3.73
2018-08-13T05:58:44.426Z,5.13
2018-08-13T06:01:15.234Z,5.23
2018-08-13T06:03:45.895Z,5.70
2018-08-13T06:06:16.604Z,8.40
2018-08-13T06:08:47.360Z,4.37
2018-08-13T06:11:18.035Z,2.10
2018-08-13T06:13:48.736Z,2.80
2018-08-13T06:16:50.552Z,2.07
2018-08-13T06:19:21.379Z,4.70
2018-08-13T06:21:52.217Z,2.40
2018-08-13T06:24:22.983Z,2.90
2018-08-13T06:26:53.779Z,3.47
2018-08-13T06:29:24.494Z,3.03
2018-08-13T06:31:55.137Z,2.97
2018-08-13T06:34:25.847Z,3.03
2018-08-13T06:36:56.582Z,2.33
2018-08-13T06:39:58.258Z,3.00
2018-08-13T06:42:28.934Z,3.00
2018-08-13T06:44:59.636Z,2.70
2018-08-13T06:47:30.361Z,1.93
2018-08-13T06:50:01.132Z,4.07
2018-08-13T06:52:31.865Z,1.87
2018-08-13T06:55:02.560Z,3.30
2018-08-13T06:57:33.296Z,1.93
2018-08-13T07:00:05.455Z,3.77
2018-08-13T07:02:36.140Z,3.70
2018-08-13T07:05:08.847Z,2.30
2018-08-13T07:07:40.327Z,5.40
2018-08-13T07:10:12.384Z,2.60
2018-08-13T07:12:45.367Z,2.60
2018-08-13T07:15:16.826Z,4.53
2018-08-13T07:17:47.511Z,3.03
2018-08-13T07:20:18.619Z,2.83
2018-08-13T07:22:49.347Z,4.10
2018-08-13T07:25:20.071Z,5.93
2018-08-13T07:27:50.935Z,2.37
2018-08-13T07:30:21.655Z,2.80
2018-08-13T07:32:52.463Z,2.47
2018-08-13T07:35:23.288Z,3.47
2018-08-13T07:37:54.023Z,3.57
2018-08-13T07:40:24.761Z,2.67
2018-08-13T07:42:55.446Z,4.03
2018-08-13T07:45:26.244Z,2.77
2018-08-13T07:47:56.979Z,2.27
2018-08-13T07:50:27.802Z,2.70
2018-08-13T07:52:58.583Z,3.17
2018-08-13T07:55:29.284Z,1.73
2018-08-13T07:58:00.158Z,2.00
2018-08-13T08:00:30.998Z,2.53
2018-08-13T08:03:01.761Z,2.17
2018-08-13T08:05:32.594Z,2.00
2018-08-13T08:08:03.571Z,1.90
2018-08-13T08:10:34.272Z,2.47
2018-08-13T08:13:05.455Z,1.70
2018-08-13T08:15:36.162Z,2.67
2018-08-13T08:18:07.081Z,3.17
2018-08-13T08:20:37.898Z,2.27
2018-08-13T08:23:08.808Z,2.03
2018-08-13T08:25:39.478Z,1.50
2018-08-13T08:28:10.299Z,2.13
2018-08-13T08:30:41.046Z,2.30
2018-08-13T08:33:11.855Z,1.80
2018-08-13T08:35:42.616Z,1.57
2018-08-13T08:38:13.311Z,1.37
2018-08-13T08:40:44.122Z,2.57
2018-08-13T08:43:15.073Z,1.53
2018-08-13T08:45:45.834Z,1.83
2018-08-13T08:48:16.566Z,1.23
2018-08-13T08:50:47.371Z,1.17
2018-08-13T08:53:18.084Z,3.73
2018-08-13T08:55:48.845Z,4.77
2018-08-13T08:58:19.574Z,1.20
2018-08-13T09:00:50.392Z,1.30
2018-08-13T09:03:21.024Z,1.37
2018-08-13T09:05:51.843Z,1.10
2018-08-13T09:08:22.461Z,1.00
2018-08-13T09:10:53.213Z,2.23
2018-08-13T09:13:23.964Z,1.93
2018-08-13T09:15:54.680Z,1.30
2018-08-13T09:19:45.927Z,1.60
2018-08-13T09:22:33.194Z,1.40
2018-08-13T09:25:20.607Z,2.20
2018-08-13T09:28:08.112Z,1.43
2018-08-13T09:30:55.757Z,1.73
2018-08-13T09:33:43.394Z,2.63
2018-08-13T09:36:14.197Z,1.73
2018-08-13T09:38:44.908Z,1.47
2018-08-13T09:41:15.539Z,1.73
2018-08-13T09:43:46.379Z,1.67
2018-08-13T09:46:17.129Z,3.37
2018-08-13T09:48:47.783Z,1.77
2018-08-13T09:51:18.415Z,1.77
2018-08-13T09:53:49.255Z,1.70
2018-08-13T09:56:19.877Z,2.40
2018-08-13T09:58:50.585Z,2.23
2018-08-13T10:01:21.263Z,1.47
2018-08-13T10:03:52.009Z,1.67
2018-08-13T10:06:22.711Z,1.60
2018-08-13T10:08:53.362Z,1.63
2018-08-13T10:11:24.068Z,1.40
2018-08-13T10:13:54.982Z,1.63
2018-08-13T10:16:25.711Z,3.27
2018-08-13T10:18:56.453Z,1.70
2018-08-13T10:21:27.236Z,2.13
2018-08-13T10:23:57.936Z,2.30
2018-08-13T10:26:28.651Z,1.40
2018-08-13T10:28:59.426Z,2.70
2018-08-13T10:31:30.253Z,1.80
2018-08-13T10:34:01.009Z,1.87
2018-08-13T10:36:31.800Z,1.70
2018-08-13T10:39:03.080Z,2.93
2018-08-13T10:41:33.806Z,1.80
2018-08-13T10:44:05.259Z,1.53
2018-08-13T10:46:36.034Z,1.67
2018-08-13T10:49:06.719Z,1.60
2018-08-13T10:51:37.511Z,1.60
2018-08-13T10:54:08.855Z,1.60
2018-08-13T10:56:39.574Z,1.43
2018-08-13T10:59:10.304Z,1.50
2018-08-13T11:01:41.091Z,1.50
2018-08-13T11:04:11.976Z,1.50
2018-08-13T11:06:43.397Z,1.30
2018-08-13T11:09:14.074Z,1.90
2018-08-13T11:11:44.762Z,1.93
2018-08-13T11:14:15.551Z,5.30
2018-08-13T11:16:46.288Z,2.13
2018-08-13T11:19:17.084Z,2.23
2018-08-13T11:21:47.823Z,2.17
2018-08-13T11:24:18.540Z,1.50
2018-08-13T11:26:49.258Z,1.50
2018-08-13T11:29:20.264Z,1.40
2018-08-13T11:31:50.900Z,1.33
2018-08-13T11:34:21.598Z,1.30
2018-08-13T11:36:52.297Z,1.30
2018-08-13T11:39:22.982Z,1.60
2018-08-13T11:41:53.714Z,1.40
2018-08-13T11:44:24.467Z,2.57
2018-08-13T11:46:55.146Z,1.47
2018-08-13T11:49:25.809Z,1.93
2018-08-13T11:51:56.474Z,1.90
2018-08-13T11:54:27.411Z,1.53
2018-08-13T11:56:58.326Z,2.00
2018-08-13T11:59:29.276Z,1.80
2018-08-13T12:02:00.126Z,1.67
2018-08-13T12:04:30.744Z,1.87
2018-08-13T12:07:01.498Z,3.10
2018-08-13T12:09:32.257Z,2.03
2018-08-13T12:12:02.905Z,1.70
2018-08-13T12:14:33.615Z,1.57
2018-08-13T12:17:04.302Z,1.60
2018-08-13T12:19:35.056Z,2.87
2018-08-13T12:22:05.797Z,1.60
2018-08-13T12:24:36.637Z,1.23
2018-08-13T12:27:07.391Z,1.77
2018-08-13T12:29:38.077Z,1.53
2018-08-13T12:32:08.870Z,2.30
2018-08-13T12:34:39.605Z,1.73
2018-08-13T12:37:10.609Z,1.70
2018-08-13T12:39:41.381Z,1.73
2018-08-13T12:42:12.097Z,1.57
2018-08-13T12:44:42.876Z,1.83
2018-08-13T12:47:13.555Z,2.10
2018-08-13T12:49:44.327Z,2.30
2018-08-13T12:52:15.070Z,3.30
2018-08-13T12:54:45.762Z,1.60
2018-08-13T12:57:16.676Z,1.50
2018-08-13T12:59:47.359Z,2.00
2018-08-13T13:02:18.058Z,2.23
2018-08-13T13:04:48.771Z,1.57
2018-08-13T13:07:19.436Z,1.63
2018-08-13T13:09:50.116Z,1.47
2018-08-13T13:12:20.852Z,1.83
2018-08-13T13:14:51.554Z,2.63
2018-08-13T13:17:22.206Z,2.27
2018-08-13T13:19:52.905Z,2.67
2018-08-13T13:22:23.558Z,4.80
2018-08-13T13:24:54.301Z,3.67
2018-08-13T13:27:24.985Z,4.97
2018-08-13T13:29:55.775Z,3.13
2018-08-13T13:32:26.480Z,5.20
2018-08-13T13:34:57.267Z,3.97
2018-08-13T13:37:27.897Z,3.00
2018-08-13T13:39:58.603Z,3.37
2018-08-13T13:42:29.381Z,1.40
2018-08-13T13:45:00.228Z,8.03
2018-08-13T13:47:31.001Z,1.40
2018-08-13T13:50:01.633Z,1.10
2018-08-13T13:52:32.403Z,1.83
2018-08-13T13:55:03.164Z,1.93
2018-08-13T13:57:33.868Z,1.77
2018-08-13T14:00:06.534Z,2.10
2018-08-13T14:02:37.225Z,2.00
2018-08-13T14:05:14.982Z,1.90
2018-08-13T14:07:45.904Z,2.07
2018-08-13T14:10:20.606Z,1.93
2018-08-13T14:12:51.380Z,2.50
2018-08-13T14:15:23.208Z,3.53
2018-08-13T14:17:54.040Z,2.73
2018-08-13T14:20:24.779Z,2.87
2018-08-13T14:22:55.431Z,2.90
2018-08-13T14:25:26.144Z,3.37
2018-08-13T14:27:56.904Z,3.47
2018-08-13T14:30:28.592Z,3.60
2018-08-13T14:32:59.442Z,3.40
2018-08-13T14:35:30.132Z,3.43
2018-08-13T14:38:00.937Z,3.07
2018-08-13T14:40:31.595Z,3.67
2018-08-13T14:43:02.283Z,2.20
2018-08-13T14:45:33.016Z,2.20
2018-08-13T14:48:03.826Z,1.10
2018-08-13T14:50:34.510Z,2.63
2018-08-13T14:53:05.425Z,2.20
2018-08-13T14:55:36.207Z,3.20
2018-08-13T14:58:07.015Z,3.20
2018-08-13T15:00:38.569Z,3.80
2018-08-13T15:03:12.959Z,2.33
2018-08-13T15:05:43.837Z,3.07
2018-08-13T15:08:14.480Z,3.03
2018-08-13T15:10:45.220Z,2.70
2018-08-13T15:13:16.009Z,2.90
2018-08-13T15:15:46.752Z,2.33
2018-08-13T15:18:17.455Z,3.07
2018-08-13T15:20:48.778Z,2.47
2018-08-13T15:23:19.384Z,1.70
2018-08-13T15:25:50.155Z,2.47
2018-08-13T15:28:20.950Z,4.23
2018-08-13T15:30:51.678Z,2.37
2018-08-13T15:33:23.007Z,3.13
2018-08-13T15:35:53.775Z,3.67
2018-08-13T15:38:25.361Z,2.83
2018-08-13T15:40:56.103Z,4.63
2018-08-13T15:43:26.880Z,2.60
2018-08-13T15:45:57.621Z,3.93
2018-08-13T15:48:28.278Z,4.90
2018-08-13T15:50:59.021Z,3.23
2018-08-13T15:53:29.743Z,3.47
2018-08-13T15:56:00.463Z,3.03
2018-08-13T15:58:31.263Z,3.37
2018-08-13T16:01:01.949Z,3.93
2018-08-13T16:03:32.648Z,4.07
2018-08-13T16:06:03.349Z,5.30
2018-08-13T16:08:34.042Z,3.83
2018-08-13T16:11:04.786Z,3.27
2018-08-13T16:13:35.475Z,5.43
2018-08-13T16:16:06.263Z,4.67
2018-08-13T16:18:36.938Z,4.60
2018-08-13T16:21:07.671Z,5.37
2018-08-13T16:23:38.430Z,5.93
2018-08-13T16:26:09.218Z,5.50
2018-08-13T16:28:40.007Z,5.00
2018-08-13T16:31:10.761Z,2.73
2018-08-13T16:33:41.641Z,5.47
2018-08-13T16:36:12.571Z,3.67
2018-08-13T16:38:43.380Z,3.20
2018-08-13T16:41:14.139Z,4.60
2018-08-13T16:43:45.824Z,3.27
2018-08-13T16:46:16.632Z,2.93
2018-08-13T16:48:47.396Z,5.00
2018-08-13T16:51:18.161Z,5.67
2018-08-13T16:53:48.793Z,3.53
2018-08-13T16:56:19.643Z,5.20
2018-08-13T16:58:50.396Z,4.13
2018-08-13T17:01:21.114Z,3.40
2018-08-13T17:03:51.837Z,3.87
2018-08-13T17:06:22.650Z,2.87
2018-08-13T17:08:53.488Z,2.30
2018-08-13T17:11:26.216Z,1.60
2018-08-13T17:13:57.092Z,1.80
2018-08-13T17:16:28.030Z,2.03
2018-08-13T17:18:58.821Z,1.70
2018-08-13T17:21:29.592Z,1.60
2018-08-13T17:24:00.476Z,1.80
2018-08-13T17:26:31.212Z,1.70
2018-08-13T17:29:01.944Z,1.43
2018-08-13T17:31:32.781Z,1.60
2018-08-13T17:34:03.663Z,2.53
2018-08-13T17:36:34.468Z,2.20
2018-08-13T17:39:08.963Z,1.50
2018-08-13T17:41:40.394Z,1.70
2018-08-13T17:44:11.165Z,1.80
2018-08-13T17:46:41.884Z,1.67
2018-08-13T17:49:12.604Z,1.80
2018-08-13T17:51:43.667Z,1.97
2018-08-13T17:54:14.375Z,1.50
2018-08-13T17:56:45.145Z,2.17
2018-08-13T17:59:15.913Z,1.80
2018-08-13T18:01:46.780Z,1.50
2018-08-13T18:04:18.159Z,1.70
2018-08-13T18:06:48.957Z,2.47
2018-08-13T18:09:19.707Z,3.37
2018-08-13T18:11:50.494Z,4.70
2018-08-13T18:14:21.272Z,2.93
2018-08-13T18:16:51.983Z,2.10
2018-08-13T18:19:22.766Z,1.80
2018-08-13T18:21:53.498Z,2.20
2018-08-13T18:24:24.226Z,2.57
2018-08-13T18:26:54.985Z,3.20
2018-08-13T18:29:25.752Z,2.97
2018-08-13T18:31:56.493Z,2.10
2018-08-13T18:34:27.227Z,4.07
2018-08-13T18:36:57.959Z,3.37
2018-08-13T18:39:28.685Z,4.23
2018-08-13T18:41:59.465Z,3.13
2018-08-13T18:44:30.256Z,2.90
2018-08-13T18:47:01.244Z,4.43
2018-08-13T18:49:38.667Z,2.97
2018-08-13T18:52:09.889Z,5.80
2018-08-13T18:54:40.876Z,3.57
2018-08-13T18:57:11.908Z,3.70
2018-08-13T18:59:42.729Z,3.57
2018-08-13T19:02:14.935Z,4.10
2018-08-13T19:04:46.232Z,3.20
2018-08-13T19:07:17.055Z,2.63
2018-08-13T19:09:47.803Z,3.73
2018-08-13T19:12:18.544Z,3.30
2018-08-13T19:14:49.329Z,4.13
2018-08-13T19:17:20.070Z,4.00
2018-08-13T19:19:50.917Z,5.70
2018-08-13T19:22:26.536Z,3.40
2018-08-13T19:24:57.489Z,4.20
2018-08-13T19:27:28.376Z,4.10
2018-08-13T19:29:59.270Z,4.70
2018-08-13T19:32:30.043Z,4.33
2018-08-13T19:35:01.028Z,2.27
2018-08-13T19:37:32.366Z,3.73
2018-08-13T19:40:03.666Z,3.17
2018-08-13T19:42:34.745Z,3.30
2018-08-13T19:45:06.949Z,5.30
2018-08-13T19:47:37.888Z,5.70
2018-08-13T19:50:10.296Z,6.00
2018-08-13T19:52:42.731Z,5.90
2018-08-13T19:55:14.622Z,5.77
2018-08-13T19:57:45.381Z,5.63
2018-08-13T20:00:21.513Z,5.70
2018-08-13T20:02:52.738Z,5.90
2018-08-13T20:05:24.919Z,5.40
2018-08-13T20:07:56.000Z,5.27
2018-08-13T20:10:27.647Z,6.80
2018-08-13T20:12:58.654Z,5.63
2018-08-13T20:15:29.439Z,4.90
2018-08-13T20:18:00.320Z,5.87
2018-08-13T20:20:31.117Z,4.90
2018-08-13T20:23:01.771Z,5.30
2018-08-13T20:25:32.565Z,5.20
2018-08-13T20:28:03.399Z,4.97
2018-08-13T20:30:34.086Z,4.60
2018-08-13T20:33:04.917Z,4.40
2018-08-13T20:35:35.603Z,4.90
2018-08-13T20:38:06.843Z,4.73
2018-08-13T20:40:37.530Z,4.17
2018-08-13T20:43:08.351Z,4.33
2018-08-13T20:45:39.107Z,4.50
2018-08-13T20:48:10.510Z,5.27
2018-08-13T20:50:41.447Z,5.50
2018-08-13T20:53:12.200Z,5.53
2018-08-13T20:55:42.946Z,5.37
2018-08-13T20:58:13.614Z,6.03
2018-08-13T21:00:44.349Z,4.83
2018-08-13T21:03:15.344Z,5.07
2018-08-13T21:05:46.175Z,5.50
2018-08-13T21:08:17.679Z,6.03
2018-08-13T21:10:48.637Z,4.67
2018-08-13T21:13:20.328Z,4.57
2018-08-13T21:15:51.139Z,4.80
2018-08-13T21:18:21.913Z,4.23
2018-08-13T21:20:52.722Z,4.20
2018-08-13T21:23:23.426Z,3.97
2018-08-13T21:25:54.089Z,5.67
2018-08-13T21:28:24.784Z,5.17
2018-08-13T21:30:55.501Z,3.97
2018-08-13T21:33:26.213Z,3.53
2018-08-13T21:35:56.891Z,3.80
2018-08-13T21:38:27.593Z,9.50
2018-08-13T21:40:58.367Z,4.70
2018-08-13T21:43:29.245Z,4.60
2018-08-13T21:46:00.122Z,4.13
2018-08-13T21:48:30.809Z,6.23
2018-08-13T21:51:01.632Z,3.60
2018-08-13T21:53:32.290Z,5.60
2018-08-13T21:56:03.014Z,4.73
2018-08-13T21:58:33.800Z,6.57
2018-08-13T22:01:09.680Z,4.57
2018-08-13T22:03:40.430Z,3.70
2018-08-13T22:06:11.168Z,3.70
2018-08-13T22:08:41.954Z,3.60
2018-08-13T22:11:12.689Z,4.37
2018-08-13T22:13:43.702Z,3.97
2018-08-13T22:16:14.516Z,4.30
2018-08-13T22:18:45.191Z,3.83
2018-08-13T22:21:16.086Z,4.27
2018-08-13T22:24:03.703Z,4.63
2018-08-13T22:26:34.420Z,3.50
2018-08-13T22:29:05.196Z,5.07
2018-08-13T22:31:35.959Z,4.40
2018-08-13T22:34:07.171Z,3.97
2018-08-13T22:36:38.102Z,5.03
2018-08-13T22:39:09.647Z,4.37
2018-08-13T22:41:40.406Z,3.93
2018-08-13T22:44:11.178Z,4.50
2018-08-13T22:46:41.982Z,4.03
2018-08-13T22:49:13.298Z,4.33
2018-08-13T22:51:44.075Z,4.27
2018-08-13T22:54:14.931Z,4.47
2018-08-13T22:56:45.615Z,4.87
2018-08-13T22:59:16.484Z,4.00
2018-08-13T23:01:47.314Z,5.50
2018-08-13T23:04:18.060Z,5.17
2018-08-13T23:06:48.789Z,6.00
2018-08-13T23:09:19.492Z,11.77
2018-08-13T23:11:50.307Z,4.57
2018-08-13T23:14:21.032Z,4.53
2018-08-13T23:16:51.705Z,5.17
2018-08-13T23:19:22.457Z,4.53
2018-08-13T23:21:53.140Z,4.47
2018-08-13T23:24:23.833Z,4.83
2018-08-13T23:26:54.571Z,6.63
2018-08-13T23:29:25.308Z,4.43
2018-08-13T23:31:56.088Z,4.90
2018-08-13T23:34:27.491Z,5.17
2018-08-13T23:36:58.331Z,6.13
2018-08-13T23:39:29.089Z,5.17
2018-08-13T23:41:59.844Z,5.50
2018-08-13T23:44:31.145Z,5.93
2018-08-13T23:47:01.816Z,5.33
2018-08-13T23:49:32.576Z,6.10
2018-08-13T23:52:03.667Z,7.17
2018-08-13T23:54:34.410Z,6.50
2018-08-13T23:57:05.157Z,7.10
2018-08-13T23:59:35.889Z,9.17
